Time;durP1;ratioP1;P1;durP2;ratioP2;P2;SDS_P1;SDS_P2;PMS_P1;PMS_P2;Temp;Humidity;BMP_temperature;BMP_pressure;BME280_temperature;BME280_humidity;BME280_pressure;Samples;Min_cycle;Max_cycle;Signal;HPM_P1;HPM_P2
2021/11/25 00:01:39;;;;;;;20.35;8.52;;;7.40;99.90;;;;;;5006599;28;20061;-84
2021/11/25 00:04:07;;;;;;;18.73;9.27;;;7.60;99.90;;;;;;4989865;28;20051;-84
2021/11/25 00:06:39;;;;;;;16.63;8.55;;;6.40;99.90;;;;;;4991263;28;20050;-85
2021/11/25 00:09:06;;;;;;;23.83;9.45;;;7.40;99.90;;;;;;4972720;28;20437;-84
2021/11/25 00:11:34;;;;;;;18.98;9.23;;;7.40;99.90;;;;;;4962495;28;20054;-86
2021/11/25 00:14:03;;;;;;;19.20;8.55;;;7.30;99.90;;;;;;4982820;28;20069;-84
2021/11/25 00:16:31;;;;;;;22.48;9.50;;;7.30;99.90;;;;;;4994568;28;20057;-83
2021/11/25 00:18:59;;;;;;;22.83;10.15;;;7.30;99.90;;;;;;5005798;28;20042;-84
2021/11/25 00:21:26;;;;;;;19.88;8.48;;;7.30;99.90;;;;;;4978411;28;20046;-83
2021/11/25 00:23:54;;;;;;;17.35;8.48;;;7.30;99.90;;;;;;4976675;28;20050;-84
2021/11/25 00:26:22;;;;;;;20.27;9.40;;;7.30;99.90;;;;;;4981143;28;20057;-84
2021/11/25 00:28:50;;;;;;;18.05;7.80;;;7.30;99.90;;;;;;4992896;28;20607;-84
2021/11/25 00:31:18;;;;;;;19.08;8.55;;;7.30;99.90;;;;;;4988960;28;20054;-85
2021/11/25 00:33:46;;;;;;;17.17;8.68;;;7.30;99.90;;;;;;5001099;28;20051;-84
2021/11/25 00:36:13;;;;;;;19.75;8.45;;;7.30;99.90;;;;;;4993117;28;20043;-85
2021/11/25 00:38:41;;;;;;;15.82;8.13;;;7.90;99.90;;;;;;5008659;28;20046;-84
2021/11/25 00:41:09;;;;;;;23.20;9.57;;;7.30;99.90;;;;;;5006397;28;20053;-84
2021/11/25 00:43:38;;;;;;;14.32;7.70;;;7.30;99.90;;;;;;4971612;28;20047;-85
2021/11/25 00:46:06;;;;;;;18.05;7.72;;;7.30;99.90;;;;;;5004900;28;20046;-85
2021/11/25 00:48:38;;;;;;;15.73;8.35;;;7.20;99.90;;;;;;4991314;28;20504;-84
2021/11/25 00:51:06;;;;;;;24.45;9.75;;;7.10;99.90;;;;;;4992934;28;20044;-84
2021/11/25 00:53:34;;;;;;;17.20;9.55;;;7.30;99.90;;;;;;4975836;28;20057;-84
2021/11/25 00:56:02;;;;;;;18.70;8.90;;;7.30;99.90;;;;;;4992218;28;20540;-84
2021/11/25 00:58:30;;;;;;;16.25;7.20;;;7.30;99.90;;;;;;4993592;28;20053;-84
2021/11/25 01:00:58;;;;;;;15.32;7.55;;;7.20;99.90;;;;;;4991317;28;20057;-84
2021/11/25 01:03:26;;;;;;;16.42;7.60;;;7.20;99.90;;;;;;4991445;28;20084;-84
2021/11/25 01:05:54;;;;;;;16.17;9.05;;;7.20;99.90;;;;;;5006875;28;20054;-85
2021/11/25 01:08:21;;;;;;;14.77;8.00;;;7.20;99.90;;;;;;4974473;28;20050;-83
2021/11/25 01:10:49;;;;;;;20.88;8.10;;;7.20;99.90;;;;;;4978138;28;20046;-83
2021/11/25 01:13:17;;;;;;;20.08;9.43;;;7.20;99.90;;;;;;4997333;28;20050;-85
2021/11/25 01:15:45;;;;;;;18.88;8.63;;;7.20;99.90;;;;;;4996910;28;20045;-83
2021/11/25 01:18:21;;;;;;;14.43;7.30;;;7.20;99.90;;;;;;4998196;28;20054;-87
2021/11/25 01:20:53;;;;;;;19.70;8.23;;;7.20;99.90;;;;;;4996228;28;20058;-83
2021/11/25 01:23:27;;;;;;;17.50;8.65;;;7.20;99.90;;;;;;4993765;28;20046;-82
2021/11/25 01:25:56;;;;;;;15.30;8.35;;;7.20;99.90;;;;;;4996690;28;20549;-84
2021/11/25 01:28:26;;;;;;;19.52;10.90;;;7.20;99.90;;;;;;4996255;28;20050;-84
2021/11/25 01:30:58;;;;;;;17.38;8.45;;;7.80;99.90;;;;;;5000977;28;20050;-83
2021/11/25 01:33:27;;;;;;;16.83;9.20;;;7.20;99.90;;;;;;5011494;28;20046;-83
2021/11/25 01:35:57;;;;;;;19.45;9.60;;;7.20;99.90;;;;;;5011783;28;20050;-83
2021/11/25 01:38:25;;;;;;;20.33;10.30;;;7.20;99.90;;;;;;5012463;28;20050;-84
2021/11/25 01:40:54;;;;;;;19.08;10.93;;;7.30;99.90;;;;;;4979616;28;20058;-84
2021/11/25 01:43:25;;;;;;;17.75;9.15;;;7.20;99.90;;;;;;4995720;28;20049;-84
2021/11/25 01:45:55;;;;;;;17.77;8.47;;;7.20;99.90;;;;;;4958387;28;20074;-83
2021/11/25 01:48:24;;;;;;;25.50;11.00;;;7.20;99.90;;;;;;5013752;28;20603;-83
2021/11/25 01:50:52;;;;;;;22.38;10.40;;;7.20;99.90;;;;;;5010672;28;20051;-86
2021/11/25 01:53:21;;;;;;;21.80;8.68;;;7.20;99.90;;;;;;4974815;28;20406;-85
2021/11/25 01:55:49;;;;;;;24.52;10.57;;;7.70;99.90;;;;;;5005635;28;20046;-82
2021/11/25 01:58:17;;;;;;;18.58;9.27;;;7.20;99.90;;;;;;4974093;28;20058;-83
2021/11/25 02:00:49;;;;;;;20.45;9.77;;;7.20;99.90;;;;;;4973336;28;20050;-83
2021/11/25 02:03:17;;;;;;;23.17;11.43;;;7.20;99.90;;;;;;5004403;28;20053;-83
2021/11/25 02:05:45;;;;;;;28.58;11.30;;;7.20;99.90;;;;;;4993755;28;20053;-84
2021/11/25 02:08:13;;;;;;;21.58;11.05;;;7.20;99.90;;;;;;4977173;28;20054;-83
2021/11/25 02:10:45;;;;;;;25.50;13.13;;;7.20;99.90;;;;;;4974518;28;20536;-84
2021/11/25 02:13:13;;;;;;;26.15;12.63;;;7.20;99.90;;;;;;4991084;28;20516;-84
2021/11/25 02:15:41;;;;;;;27.38;14.27;;;7.20;99.90;;;;;;5005019;28;20061;-85
2021/11/25 02:18:12;;;;;;;21.95;10.98;;;8.10;99.90;;;;;;4990079;28;20043;-84
2021/11/25 02:20:45;;;;;;;24.27;10.77;;;7.30;99.90;;;;;;4986577;28;20421;-85
2021/11/25 02:23:15;;;;;;;23.88;10.88;;;7.30;99.90;;;;;;5004710;28;20061;-85
2021/11/25 02:25:44;;;;;;;20.88;10.68;;;7.30;99.90;;;;;;5024085;28;20046;-84
2021/11/25 02:28:12;;;;;;;21.23;10.02;;;7.20;99.90;;;;;;5009617;28;20051;-84
2021/11/25 02:30:40;;;;;;;27.60;11.90;;;7.30;99.90;;;;;;5004238;28;20057;-86
2021/11/25 02:33:08;;;;;;;23.23;11.48;;;7.30;99.90;;;;;;4976622;28;20482;-85
2021/11/25 02:35:39;;;;;;;21.83;11.15;;;7.30;99.90;;;;;;4993235;28;20498;-85
2021/11/25 02:38:08;;;;;;;22.77;10.55;;;6.70;99.90;;;;;;4992535;28;20057;-84
2021/11/25 02:40:49;;;;;;;21.20;10.90;;;7.60;99.90;;;;;;4974381;28;20054;-86
2021/11/25 02:43:19;;;;;;;23.30;11.43;;;7.30;99.90;;;;;;4992356;28;20066;-85
2021/11/25 02:45:55;;;;;;;21.40;11.27;;;7.20;99.90;;;;;;4973916;28;20053;-85
2021/11/25 02:48:51;;;;;;;26.98;13.77;;;7.30;99.90;;;;;;4990310;28;20043;-84
2021/11/25 02:51:21;;;;;;;23.98;12.68;;;7.20;99.90;;;;;;4973451;28;20066;-85
2021/11/25 02:53:49;;;;;;;24.13;11.73;;;7.20;99.90;;;;;;4983090;28;20038;-84
2021/11/25 02:56:21;;;;;;;31.05;12.85;;;7.20;99.90;;;;;;5007122;28;20062;-83
2021/11/25 02:58:50;;;;;;;28.40;14.77;;;7.80;99.90;;;;;;4974794;28;20545;-85
2021/11/25 03:01:23;;;;;;;34.55;16.02;;;7.20;99.90;;;;;;4989798;28;20061;-84
2021/11/25 03:03:52;;;;;;;36.60;17.63;;;7.20;99.90;;;;;;5006719;28;20058;-85
2021/11/25 03:06:20;;;;;;;33.67;17.42;;;7.20;99.90;;;;;;4992005;28;20417;-87
2021/11/25 03:08:48;;;;;;;34.75;20.45;;;8.10;99.90;;;;;;5006415;28;20039;-85
2021/11/25 03:11:20;;;;;;;34.08;18.35;;;7.10;99.90;;;;;;4986667;28;20061;-84
2021/11/25 03:13:52;;;;;;;38.75;21.38;;;7.10;99.90;;;;;;4993156;28;20057;-85
2021/11/25 03:16:22;;;;;;;41.78;22.02;;;7.50;99.90;;;;;;4991269;28;20054;-84
2021/11/25 03:18:51;;;;;;;36.80;19.67;;;7.10;99.90;;;;;;5006146;28;20050;-84
2021/11/25 03:21:20;;;;;;;41.13;21.25;;;7.10;99.90;;;;;;4974190;28;20481;-84
2021/11/25 03:23:50;;;;;;;33.60;19.38;;;7.50;99.90;;;;;;5005752;28;20438;-84
2021/11/25 03:26:20;;;;;;;27.23;15.13;;;7.10;99.90;;;;;;5004525;28;20050;-83
2021/11/25 03:28:49;;;;;;;30.33;16.25;;;7.70;99.90;;;;;;4969161;28;20553;-82
2021/11/25 03:31:24;;;;;;;32.97;17.27;;;7.10;99.90;;;;;;4989142;28;20698;-84
2021/11/25 03:33:54;;;;;;;33.75;16.00;;;7.70;99.90;;;;;;4957768;28;20068;-84
2021/11/25 03:36:24;;;;;;;31.92;15.80;;;7.00;99.90;;;;;;4989539;28;20554;-82
2021/11/25 03:38:52;;;;;;;35.10;17.50;;;7.10;99.90;;;;;;4979617;28;20418;-83
2021/11/25 03:41:22;;;;;;;33.33;16.65;;;7.00;99.90;;;;;;4957599;28;20065;-83
2021/11/25 03:43:50;;;;;;;44.00;17.50;;;7.00;99.90;;;;;;5006754;28;20050;-83
2021/11/25 03:46:18;;;;;;;33.05;16.73;;;7.00;99.90;;;;;;4974798;28;20046;-86
2021/11/25 03:48:46;;;;;;;31.50;16.80;;;7.00;99.90;;;;;;4988298;28;20042;-83
2021/11/25 03:51:14;;;;;;;32.88;17.30;;;7.10;99.90;;;;;;4972690;28;20426;-86
2021/11/25 03:53:44;;;;;;;34.50;16.33;;;7.50;99.90;;;;;;4981741;28;20046;-84
2021/11/25 03:56:12;;;;;;;32.05;15.65;;;7.00;99.90;;;;;;4990209;28;20062;-83
2021/11/25 03:58:40;;;;;;;34.38;17.80;;;7.00;99.90;;;;;;4974999;28;20053;-83
2021/11/25 04:01:09;;;;;;;35.22;18.08;;;7.00;99.90;;;;;;4990672;28;20057;-83
2021/11/25 04:03:39;;;;;;;36.67;16.65;;;7.00;99.90;;;;;;4986190;28;20046;-85
2021/11/25 04:06:06;;;;;;;32.35;17.65;;;7.00;99.90;;;;;;4977041;28;20687;-85
2021/11/25 04:08:34;;;;;;;36.83;17.00;;;7.40;99.90;;;;;;5005447;28;20049;-83
2021/11/25 04:11:03;;;;;;;36.40;16.60;;;7.00;99.90;;;;;;4972617;28;20830;-84
2021/11/25 04:13:30;;;;;;;32.90;17.05;;;7.00;99.90;;;;;;4980427;28;20054;-84
2021/11/25 04:15:58;;;;;;;27.40;16.38;;;7.00;99.90;;;;;;4976237;28;20355;-85
2021/11/25 04:18:26;;;;;;;34.33;18.58;;;7.00;99.90;;;;;;4992408;28;20049;-84
2021/11/25 04:20:54;;;;;;;38.03;17.60;;;7.00;99.90;;;;;;4973081;28;20050;-84
2021/11/25 04:23:22;;;;;;;30.65;17.77;;;7.00;99.90;;;;;;4990757;28;20118;-85
2021/11/25 04:25:50;;;;;;;31.17;16.52;;;7.90;99.90;;;;;;4988823;28;20374;-84
2021/11/25 04:28:18;;;;;;;32.17;16.33;;;7.00;99.90;;;;;;4971529;28;20073;-83
2021/11/25 04:36:00;;;;;;;27.10;12.77;;;6.90;99.90;;;;;;4974882;28;20394;-85
2021/11/25 04:38:28;;;;;;;31.08;16.40;;;8.20;99.90;;;;;;4972984;28;20049;-85
2021/11/25 04:41:00;;;;;;;35.40;13.45;;;6.90;99.90;;;;;;4991280;28;20039;-83
2021/11/25 04:43:30;;;;;;;30.42;15.60;;;6.90;99.90;;;;;;4986187;28;20197;-84
2021/11/25 04:45:59;;;;;;;32.40;14.48;;;6.90;99.90;;;;;;4991412;28;20054;-86
2021/11/25 04:48:28;;;;;;;29.75;11.98;;;6.80;99.90;;;;;;4985082;28;20609;-83
2021/11/25 04:50:56;;;;;;;22.25;11.07;;;6.80;99.90;;;;;;5014624;28;20042;-84
2021/11/25 04:53:25;;;;;;;21.38;9.98;;;6.80;99.90;;;;;;4995979;28;20050;-84
2021/11/25 04:55:52;;;;;;;28.77;13.32;;;7.50;99.90;;;;;;4977667;28;20046;-83
2021/11/25 04:58:20;;;;;;;18.90;8.38;;;6.80;99.90;;;;;;4995855;28;20046;-83
2021/11/25 05:00:48;;;;;;;19.00;7.72;;;6.80;99.90;;;;;;4993938;28;20054;-87
2021/11/25 05:03:16;;;;;;;19.05;7.75;;;6.70;99.90;;;;;;4984223;28;20405;-84
2021/11/25 05:05:44;;;;;;;16.15;6.93;;;6.70;99.90;;;;;;4983014;28;20050;-83
2021/11/25 05:08:12;;;;;;;18.65;8.60;;;6.70;99.90;;;;;;5003942;28;20050;-88
2021/11/25 05:10:40;;;;;;;19.02;8.60;;;6.70;99.90;;;;;;5017393;28;20035;-85
2021/11/25 05:13:08;;;;;;;18.08;8.10;;;8.00;99.90;;;;;;5019513;28;20281;-86
2021/11/25 05:15:36;;;;;;;16.83;6.72;;;6.60;99.90;;;;;;5013853;28;20038;-83
2021/11/25 05:18:05;;;;;;;19.67;6.78;;;6.50;99.90;;;;;;4995669;28;20054;-83
2021/11/25 05:20:33;;;;;;;26.73;7.97;;;6.50;99.90;;;;;;5005503;28;20034;-83
2021/11/25 05:23:01;;;;;;;17.50;6.90;;;6.50;99.90;;;;;;5024620;28;20824;-84
2021/11/25 05:25:29;;;;;;;19.75;7.40;;;6.40;99.90;;;;;;5001235;28;20049;-88
2021/11/25 05:27:57;;;;;;;15.65;6.88;;;6.30;99.90;;;;;;4985349;28;20053;-85
2021/11/25 05:30:30;;;;;;;12.45;6.65;;;7.00;99.90;;;;;;5007179;28;20038;-85
2021/11/25 05:33:00;;;;;;;12.95;5.90;;;6.20;99.90;;;;;;4992611;28;20057;-83
2021/11/25 05:35:28;;;;;;;18.02;6.57;;;6.60;99.90;;;;;;5021992;28;20065;-82
2021/11/25 05:37:56;;;;;;;15.55;5.75;;;6.00;99.90;;;;;;5003238;28;20058;-83
2021/11/25 05:40:24;;;;;;;12.05;5.28;;;6.00;99.90;;;;;;5001923;28;20050;-83
2021/11/25 05:42:52;;;;;;;11.75;4.55;;;5.90;99.90;;;;;;5002187;28;20049;-83
2021/11/25 05:45:20;;;;;;;10.90;4.43;;;5.90;99.90;;;;;;5003885;28;20049;-83
2021/11/25 05:47:48;;;;;;;16.70;4.68;;;5.80;99.90;;;;;;4990125;28;20047;-83
2021/11/25 05:50:25;;;;;;;9.40;3.92;;;5.80;99.90;;;;;;4997021;28;20046;-82
2021/11/25 05:52:56;;;;;;;13.20;6.95;;;5.70;99.90;;;;;;4984608;28;20066;-85
2021/11/25 05:55:27;;;;;;;11.02;4.07;;;5.70;99.90;;;;;;5000237;28;20050;-86
2021/11/25 05:57:55;;;;;;;;;;;5.60;99.90;;;;;;5018519;28;20365;-81
2021/11/25 06:00:23;;;;;;;11.48;3.88;;;5.60;99.90;;;;;;5021035;28;19922;-85
2021/11/25 06:02:52;;;;;;;11.48;3.45;;;5.50;99.90;;;;;;5016827;28;20054;-84
2021/11/25 06:05:22;;;;;;;7.30;3.22;;;5.40;99.90;;;;;;4981208;28;20047;-87
2021/11/25 06:07:51;;;;;;;8.40;3.70;;;5.40;99.90;;;;;;5016356;28;20066;-87
2021/11/25 06:10:22;;;;;;;6.40;3.38;;;5.40;99.90;;;;;;4996483;28;20358;-85
2021/11/25 06:12:50;;;;;;;;;;;5.50;99.90;;;;;;5011998;28;20053;-83
2021/11/25 06:15:21;;;;;;;10.50;3.15;;;5.30;99.90;;;;;;4993490;28;19929;-86
2021/11/25 06:17:50;;;;;;;8.73;2.70;;;6.00;99.90;;;;;;5010258;28;20051;-85
2021/11/25 06:20:19;;;;;;;8.20;2.53;;;5.80;99.90;;;;;;4978388;28;20402;-84
2021/11/25 06:22:50;;;;;;;10.15;3.08;;;5.20;99.90;;;;;;4994783;28;20050;-83
2021/11/25 06:25:19;;;;;;;6.63;2.97;;;5.20;99.90;;;;;;4995630;28;20065;-85
2021/11/25 06:27:47;;;;;;;15.00;4.32;;;5.20;99.90;;;;;;4970698;28;20058;-86
2021/11/25 06:30:16;;;;;;;6.07;3.30;;;5.10;99.90;;;;;;4993927;28;20053;-84
2021/11/25 06:32:46;;;;;;;9.93;3.55;;;5.10;99.90;;;;;;4975980;28;20601;-83
2021/11/25 06:35:15;;;;;;;9.30;3.20;;;5.10;99.90;;;;;;4992777;28;20486;-85
2021/11/25 06:37:49;;;;;;;20.73;4.80;;;5.00;99.90;;;;;;4992815;28;20053;-85
2021/11/25 06:40:21;;;;;;;7.82;3.00;;;5.00;99.90;;;;;;4993460;28;20057;-83
2021/11/25 06:42:49;;;;;;;7.47;2.92;;;5.00;99.90;;;;;;5006697;28;20054;-83
2021/11/25 06:45:17;;;;;;;9.00;3.00;;;4.90;99.90;;;;;;5007590;28;20066;-83
2021/11/25 06:47:47;;;;;;;17.05;4.55;;;4.90;99.90;;;;;;4992084;28;20058;-83
2021/11/25 06:50:16;;;;;;;15.75;5.03;;;5.00;99.90;;;;;;4992036;28;20073;-88
2021/11/25 06:52:44;;;;;;;14.77;3.90;;;4.80;99.90;;;;;;5008162;28;20046;-84
2021/11/25 06:55:14;;;;;;;7.88;2.97;;;4.80;99.90;;;;;;4992497;28;20118;-84
2021/11/25 06:57:47;;;;;;;17.08;4.35;;;4.80;99.90;;;;;;4991768;28;20045;-83
2021/11/25 07:00:17;;;;;;;7.45;2.70;;;4.70;99.90;;;;;;4973747;28;20046;-82
2021/11/25 07:02:44;;;;;;;22.02;4.15;;;4.70;99.90;;;;;;4992337;28;20061;-84
2021/11/25 07:05:12;;;;;;;14.88;3.60;;;4.70;99.90;;;;;;5004718;28;20038;-82
2021/11/25 07:07:42;;;;;;;12.18;3.38;;;4.60;99.90;;;;;;4991711;28;21089;-83
2021/11/25 07:10:14;;;;;;;12.05;4.18;;;5.50;99.90;;;;;;4993418;28;20046;-83
2021/11/25 07:12:43;;;;;;;9.43;3.17;;;4.50;99.90;;;;;;5008001;28;20050;-83
2021/11/25 07:15:41;;;;;;;16.10;3.70;;;4.50;99.90;;;;;;5018529;28;20054;-83
2021/11/25 07:18:44;;;;;;;12.30;4.22;;;4.50;99.90;;;;;;5003615;28;20030;-84
2021/11/25 07:22:15;;;;;;;7.60;4.22;;;4.40;99.90;;;;;;5019487;28;20044;-84
2021/11/25 07:24:43;;;;;;;8.38;2.80;;;4.30;99.90;;;;;;4975445;28;20058;-85
2021/11/25 07:27:11;;;;;;;5.55;2.55;;;4.50;99.90;;;;;;4978989;28;20077;-83
2021/11/25 07:29:38;;;;;;;8.15;2.30;;;4.30;99.90;;;;;;4988461;28;20050;-84
2021/11/25 07:32:07;;;;;;;9.02;5.38;;;4.20;99.90;;;;;;4994991;28;20056;-83
2021/11/25 07:34:35;;;;;;;11.52;3.50;;;4.20;99.90;;;;;;4996265;28;20042;-84
2021/11/25 07:37:03;;;;;;;12.38;3.33;;;4.20;99.90;;;;;;4989091;28;20858;-83
2021/11/25 07:39:31;;;;;;;10.25;3.22;;;4.10;99.90;;;;;;5009739;28;20049;-82
2021/11/25 07:41:59;;;;;;;8.68;4.55;;;4.10;99.90;;;;;;5011912;28;20065;-83
2021/11/25 07:44:27;;;;;;;9.18;3.95;;;4.00;99.90;;;;;;5001021;28;20062;-83
2021/11/25 07:46:55;;;;;;;14.48;4.85;;;4.00;99.90;;;;;;4989015;28;20058;-83
2021/11/25 07:49:24;;;;;;;9.30;2.60;;;4.00;99.90;;;;;;5007057;28;20054;-82
2021/11/25 07:51:52;;;;;;;17.83;4.80;;;4.00;99.90;;;;;;4979047;28;20054;-84
2021/11/25 07:54:19;;;;;;;3.25;2.38;;;4.00;99.90;;;;;;4995625;28;20042;-81
2021/11/25 07:56:47;;;;;;;12.85;3.50;;;3.90;99.90;;;;;;5003189;28;20097;-83
2021/11/25 07:59:15;;;;;;;6.22;2.60;;;4.90;99.90;;;;;;4990362;28;20050;-83
2021/11/25 08:01:43;;;;;;;8.88;3.08;;;3.90;99.90;;;;;;4989017;28;20050;-83
2021/11/25 08:04:10;;;;;;;11.23;4.40;;;3.90;99.90;;;;;;4994712;28;20061;-81
2021/11/25 08:06:39;;;;;;;7.28;3.17;;;4.00;99.90;;;;;;4978649;28;20547;-83
2021/11/25 08:09:06;;;;;;;12.75;2.97;;;3.90;99.90;;;;;;4989359;28;20482;-82
2021/11/25 08:11:34;;;;;;;14.25;3.75;;;3.90;99.90;;;;;;4989024;28;20039;-81
2021/11/25 08:14:03;;;;;;;8.82;3.58;;;4.50;99.90;;;;;;4996917;28;20042;-84
2021/11/25 08:16:31;;;;;;;15.65;3.40;;;3.90;99.90;;;;;;4987677;28;20557;-82
2021/11/25 08:18:59;;;;;;;11.02;3.22;;;3.90;99.90;;;;;;4968582;28;20053;-82
2021/11/25 08:21:27;;;;;;;10.82;3.25;;;3.90;99.90;;;;;;4992069;28;20050;-82
2021/11/25 08:23:56;;;;;;;11.48;4.32;;;3.90;99.90;;;;;;4986810;28;20050;-83
2021/11/25 08:26:24;;;;;;;15.90;4.88;;;3.90;99.90;;;;;;4988043;28;20038;-81
2021/11/25 08:28:51;;;;;;;6.57;2.72;;;3.90;99.90;;;;;;4988587;28;20061;-83
2021/11/25 08:31:19;;;;;;;6.25;3.08;;;4.00;99.90;;;;;;4986918;28;20051;-82
2021/11/25 08:33:47;;;;;;;7.45;2.65;;;4.00;99.90;;;;;;4989414;28;20065;-83
2021/11/25 08:36:16;;;;;;;12.25;2.90;;;4.00;99.90;;;;;;4999074;28;20047;-82
2021/11/25 08:38:44;;;;;;;13.18;3.58;;;4.40;99.90;;;;;;4988140;28;20049;-83
2021/11/25 08:41:12;;;;;;;5.85;3.22;;;4.00;99.90;;;;;;5004926;28;20066;-81
2021/11/25 08:43:40;;;;;;;11.07;4.53;;;4.10;99.90;;;;;;4992659;28;20054;-85
2021/11/25 08:46:08;;;;;;;12.88;3.50;;;4.10;99.90;;;;;;4989315;28;20038;-83
2021/11/25 08:48:36;;;;;;;11.60;3.03;;;4.10;99.90;;;;;;5007613;28;20051;-82
2021/11/25 08:51:04;;;;;;;13.43;3.17;;;4.20;99.90;;;;;;4981561;28;20038;-83
2021/11/25 08:53:32;;;;;;;10.95;3.28;;;4.20;99.90;;;;;;4990432;28;20058;-83
2021/11/25 08:56:00;;;;;;;12.95;3.70;;;4.20;99.90;;;;;;4996790;28;20042;-83
2021/11/25 08:58:28;;;;;;;10.23;4.38;;;4.20;99.90;;;;;;4992983;28;20049;-83
2021/11/25 09:00:56;;;;;;;8.55;3.47;;;4.20;99.90;;;;;;4983948;28;20046;-82
2021/11/25 09:03:24;;;;;;;6.85;3.65;;;4.20;99.90;;;;;;4987494;28;20537;-82
2021/11/25 09:05:52;;;;;;;11.98;3.40;;;4.30;99.90;;;;;;5009139;28;20634;-81
2021/11/25 09:08:20;;;;;;;7.05;3.13;;;4.30;99.90;;;;;;4976843;28;20045;-82
2021/11/25 09:10:48;;;;;;;5.18;2.92;;;4.30;99.90;;;;;;5012381;28;20417;-82
2021/11/25 09:13:15;;;;;;;8.48;2.80;;;5.40;99.90;;;;;;5013042;28;20069;-82
2021/11/25 09:15:43;;;;;;;12.05;3.53;;;4.40;99.90;;;;;;4988201;28;20050;-83
2021/11/25 09:18:12;;;;;;;5.70;2.42;;;4.40;99.90;;;;;;4990983;28;20456;-82
2021/11/25 09:20:40;;;;;;;6.72;2.88;;;4.40;99.90;;;;;;4987034;28;20054;-81
2021/11/25 09:23:12;;;;;;;10.25;3.67;;;5.10;99.90;;;;;;4990816;28;20114;-83
2021/11/25 09:25:44;;;;;;;5.18;3.35;;;4.40;99.90;;;;;;4989049;28;20061;-82
2021/11/25 09:28:16;;;;;;;7.63;2.85;;;4.50;99.90;;;;;;5011442;28;20060;-82
2021/11/25 09:30:46;;;;;;;11.48;3.08;;;4.50;99.90;;;;;;5009254;28;20656;-83
2021/11/25 09:33:14;;;;;;;14.00;3.13;;;4.50;99.90;;;;;;4993942;28;20047;-84
2021/11/25 09:35:43;;;;;;;10.70;3.05;;;4.60;99.90;;;;;;4989678;28;20058;-84
2021/11/25 09:38:11;;;;;;;6.07;3.30;;;4.60;99.90;;;;;;4991168;28;20061;-83
2021/11/25 09:40:44;;;;;;;9.55;3.28;;;5.30;99.90;;;;;;5024251;28;20399;-83
2021/11/25 09:43:15;;;;;;;9.38;4.13;;;4.60;99.90;;;;;;5010893;28;20054;-82
2021/11/25 09:45:45;;;;;;;5.43;3.78;;;4.70;99.90;;;;;;4996393;28;21404;-82
2021/11/25 09:48:13;;;;;;;15.73;3.58;;;4.70;99.90;;;;;;4971301;28;20747;-83
2021/11/25 09:50:44;;;;;;;7.15;2.55;;;4.80;99.90;;;;;;4991531;28;20089;-82
2021/11/25 09:53:14;;;;;;;8.05;4.28;;;4.80;99.90;;;;;;4989050;28;20514;-81
2021/11/25 09:55:43;;;;;;;14.48;5.18;;;4.80;99.90;;;;;;4962894;28;20058;-82
2021/11/25 09:58:13;;;;;;;6.03;2.80;;;4.80;99.90;;;;;;4969885;28;20061;-82
2021/11/25 10:00:44;;;;;;;8.18;2.45;;;5.30;99.90;;;;;;4976380;28;20046;-83
2021/11/25 10:03:16;;;;;;;9.25;2.65;;;4.90;99.90;;;;;;4944441;28;1302141;-81
2021/11/25 10:05:50;;;;;;;11.90;4.57;;;4.90;99.90;;;;;;5007298;28;20050;-82
2021/11/25 10:08:33;;;;;;;13.82;3.40;;;5.00;99.90;;;;;;4990859;28;20353;-82
2021/11/25 10:11:10;;;;;;;6.35;3.00;;;5.40;99.90;;;;;;4991978;28;20050;-82
2021/11/25 10:13:41;;;;;;;8.60;4.88;;;5.00;99.90;;;;;;5015501;28;20413;-82
2021/11/25 10:16:14;;;;;;;8.98;3.05;;;5.00;99.90;;;;;;4996275;28;20119;-83
2021/11/25 10:18:42;;;;;;;8.07;3.65;;;5.10;99.90;;;;;;4995482;28;20382;-84
2021/11/25 10:21:17;;;;;;;6.47;3.20;;;5.20;99.90;;;;;;4995744;28;20417;-82
2021/11/25 10:23:49;;;;;;;4.32;2.30;;;5.20;99.90;;;;;;4994542;28;20034;-81
2021/11/25 10:26:25;;;;;;;6.50;2.80;;;5.20;99.90;;;;;;5009340;28;20138;-81
2021/11/25 10:28:55;;;;;;;11.70;2.88;;;5.30;99.90;;;;;;5011192;28;20413;-82
2021/11/25 10:31:29;;;;;;;4.65;2.58;;;5.30;99.90;;;;;;4996578;28;20047;-82
2021/11/25 10:34:04;;;;;;;10.43;2.40;;;5.40;99.90;;;;;;4979663;28;20054;-81
2021/11/25 10:42:08;;;;;;;7.93;3.35;;;5.60;99.90;;;;;;4965815;28;20046;-83
2021/11/25 10:44:50;;;;;;;9.27;3.22;;;5.60;99.90;;;;;;4975635;28;20055;-82
2021/11/25 10:47:26;;;;;;;8.43;3.17;;;5.60;99.90;;;;;;4975451;28;20042;-82
2021/11/25 10:49:57;;;;;;;9.82;3.67;;;5.60;99.90;;;;;;5012452;28;20046;-83
2021/11/25 10:52:37;;;;;;;14.47;2.87;;;5.70;99.90;;;;;;4975592;28;20053;-85
2021/11/25 10:55:08;;;;;;;11.23;3.42;;;5.70;99.90;;;;;;4993460;28;20042;-83
2021/11/25 10:57:41;;;;;;;5.57;2.78;;;5.80;99.90;;;;;;4989016;28;20376;-82
2021/11/25 11:00:23;;;;;;;14.15;3.78;;;5.80;99.90;;;;;;5017946;28;20058;-82
2021/11/25 11:03:07;;;;;;;15.80;4.63;;;5.80;99.90;;;;;;4993295;28;20072;-82
2021/11/25 11:05:52;;;;;;;11.75;3.72;;;5.80;99.90;;;;;;5002953;28;20406;-82
2021/11/25 11:08:20;;;;;;;13.65;3.75;;;5.90;99.90;;;;;;5002976;28;20046;-82
2021/11/25 11:10:55;;;;;;;12.60;3.58;;;5.90;99.90;;;;;;4999105;28;20065;-83
2021/11/25 11:21:31;;;;;;;9.23;3.50;;;6.00;99.90;;;;;;4996459;28;20038;-82
2021/11/25 11:24:05;;;;;;;8.48;4.47;;;6.20;99.90;;;;;;4998190;28;20046;-84
2021/11/25 11:26:34;;;;;;;8.38;2.78;;;6.00;99.90;;;;;;5014879;28;20050;-84
2021/11/25 11:29:03;;;;;;;10.40;3.03;;;6.10;99.90;;;;;;5012311;28;20046;-82
2021/11/25 11:31:34;;;;;;;7.15;3.03;;;6.50;99.90;;;;;;4993742;28;20081;-83
2021/11/25 11:34:04;;;;;;;10.60;4.05;;;6.20;99.90;;;;;;4984961;28;20061;-87
2021/11/25 11:36:34;;;;;;;4.90;2.45;;;6.90;99.90;;;;;;4990836;28;20045;-83
2021/11/25 11:39:03;;;;;;;11.52;3.00;;;6.30;99.90;;;;;;5007674;28;20061;-82
2021/11/25 11:41:31;;;;;;;9.32;3.75;;;6.40;99.90;;;;;;4996623;28;20438;-81
2021/11/25 11:44:03;;;;;;;9.18;2.45;;;6.40;99.90;;;;;;4978964;28;20064;-82
2021/11/25 11:46:35;;;;;;;6.05;2.20;;;6.50;99.90;;;;;;4981613;28;20079;-82
2021/11/25 11:49:05;;;;;;;7.60;2.50;;;6.50;99.90;;;;;;4980593;28;20373;-83
2021/11/25 11:51:33;;;;;;;8.98;2.60;;;6.50;99.90;;;;;;4977830;28;20057;-82
2021/11/25 11:54:02;;;;;;;10.27;3.90;;;7.30;99.90;;;;;;4960792;28;20057;-83
2021/11/25 11:56:34;;;;;;;10.25;3.80;;;6.50;99.90;;;;;;4973589;28;20041;-81
2021/11/25 11:59:03;;;;;;;7.78;2.55;;;6.60;99.90;;;;;;4996498;28;20045;-82
2021/11/25 12:01:31;;;;;;;6.63;2.60;;;6.60;99.90;;;;;;5006279;28;20038;-82
2021/11/25 12:04:08;;;;;;;9.23;4.07;;;6.70;99.90;;;;;;5008610;28;20065;-80
2021/11/25 12:06:46;;;;;;;6.75;3.25;;;6.70;99.90;;;;;;4994056;28;20513;-84
2021/11/25 12:09:20;;;;;;;14.50;4.43;;;6.80;99.90;;;;;;4995073;28;20061;-82
2021/11/25 12:12:09;;;;;;;9.95;3.22;;;6.90;99.90;;;;;;4988127;28;20042;-81
2021/11/25 12:14:49;;;;;;;7.70;2.47;;;6.90;99.90;;;;;;4994002;28;20064;-82
2021/11/25 12:17:37;;;;;;;7.68;3.22;;;6.90;99.90;;;;;;4983493;28;20049;-82
2021/11/25 12:20:33;;;;;;;10.73;3.50;;;7.00;99.90;;;;;;4992364;28;20478;-85
2021/11/25 12:23:00;;;;;;;4.03;2.28;;;7.10;99.90;;;;;;4972357;28;20041;-82
2021/11/25 12:25:36;;;;;;;10.88;3.10;;;7.10;99.90;;;;;;4997803;28;20049;-82
2021/11/25 12:28:18;;;;;;;12.60;3.78;;;7.10;99.90;;;;;;4990138;28;20049;-82
2021/11/25 12:30:52;;;;;;;8.48;3.05;;;7.10;99.90;;;;;;4989147;28;20050;-82
2021/11/25 12:33:38;;;;;;;15.93;4.65;;;7.10;99.90;;;;;;4994730;28;20042;-83
2021/11/25 12:36:07;;;;;;;11.25;4.13;;;7.70;99.90;;;;;;4987246;28;20046;-82
2021/11/25 12:38:39;;;;;;;13.00;3.85;;;7.20;99.90;;;;;;4972205;28;20535;-82
2021/11/25 12:41:09;;;;;;;6.93;2.25;;;7.20;99.90;;;;;;4990236;28;20086;-82
2021/11/25 12:43:41;;;;;;;7.38;2.88;;;7.20;99.90;;;;;;5009368;28;20050;-83
2021/11/25 12:46:17;;;;;;;7.07;2.30;;;7.20;99.90;;;;;;4991020;28;20050;-82
2021/11/25 12:48:50;;;;;;;6.03;2.28;;;7.20;99.90;;;;;;5001583;28;20050;-82
2021/11/25 12:51:18;;;;;;;11.13;3.08;;;7.30;99.90;;;;;;4993033;28;20046;-82
2021/11/25 12:53:53;;;;;;;12.63;3.47;;;7.60;99.90;;;;;;4976646;28;20050;-81
2021/11/25 12:56:32;;;;;;;4.78;2.53;;;7.50;99.90;;;;;;5000954;28;20057;-82
2021/11/25 12:59:08;;;;;;;10.68;4.15;;;7.50;99.90;;;;;;5003074;28;20059;-82
2021/11/25 13:01:44;;;;;;;10.30;3.45;;;7.60;99.90;;;;;;4987957;28;20054;-83
2021/11/25 13:04:21;;;;;;;6.75;2.10;;;7.60;99.90;;;;;;4993492;28;20518;-82
2021/11/25 13:06:56;;;;;;;14.57;2.72;;;7.60;99.90;;;;;;5011771;28;20054;-81
2021/11/25 13:09:31;;;;;;;6.30;2.63;;;7.70;99.90;;;;;;4999191;28;20336;-82
2021/11/25 13:12:03;;;;;;;13.65;2.35;;;7.70;99.90;;;;;;5003309;28;20244;-82
2021/11/25 13:14:32;;;;;;;7.60;3.72;;;7.70;99.90;;;;;;5005110;28;20035;-82
2021/11/25 13:17:05;;;;;;;5.28;2.67;;;7.80;99.90;;;;;;5023206;28;20091;-82
2021/11/25 13:19:34;;;;;;;17.80;2.42;;;7.80;99.90;;;;;;5009394;28;20042;-84
2021/11/25 13:22:08;;;;;;;10.98;3.50;;;7.90;99.90;;;;;;5007770;28;20064;-81
2021/11/25 13:24:38;;;;;;;17.88;4.30;;;7.90;99.90;;;;;;4998204;28;20053;-81